sensor_id;sensor_type;location;lat;lon;timestamp;temperature;humidity
23403;DHT22;11874;48.228;11.684;2023-07-29T08:55:07;20.20;99.90
23403;DHT22;11874;48.228;11.684;2023-07-29T08:57:36;20.20;99.90
23403;DHT22;11874;48.228;11.684;2023-07-29T09:00:07;20.20;99.90
23403;DHT22;11874;48.228;11.684;2023-07-29T09:02:36;20.30;99.90
23403;DHT22;11874;48.228;11.684;2023-07-29T09:05:05;20.30;99.90
23403;DHT22;11874;48.228;11.684;2023-07-29T09:07:39;20.40;99.90
23403;DHT22;11874;48.228;11.684;2023-07-29T09:10:11;20.40;99.90
23403;DHT22;11874;48.228;11.684;2023-07-29T09:12:42;20.50;99.90
23403;DHT22;11874;48.228;11.684;2023-07-29T09:15:10;20.50;99.90
23403;DHT22;11874;48.228;11.684;2023-07-29T09:17:42;20.50;99.90
23403;DHT22;11874;48.228;11.684;2023-07-29T09:20:10;20.50;99.90
23403;DHT22;11874;48.228;11.684;2023-07-29T09:22:40;20.50;99.90
23403;DHT22;11874;48.228;11.684;2023-07-29T09:25:15;20.50;99.90
23403;DHT22;11874;48.228;11.684;2023-07-29T09:27:43;20.40;99.90
23403;DHT22;11874;48.228;11.684;2023-07-29T09:30:17;20.40;99.90
23403;DHT22;11874;48.228;11.684;2023-07-29T09:32:46;20.40;99.90
23403;DHT22;11874;48.228;11.684;2023-07-29T09:35:15;20.50;99.90
23403;DHT22;11874;48.228;11.684;2023-07-29T09:37:43;20.50;99.90
23403;DHT22;11874;48.228;11.684;2023-07-29T09:40:15;20.60;99.90
23403;DHT22;11874;48.228;11.684;2023-07-29T09:42:48;20.60;99.90
23403;DHT22;11874;48.228;11.684;2023-07-29T09:45:21;20.70;99.90
23403;DHT22;11874;48.228;11.684;2023-07-29T09:47:49;20.70;99.90
23403;DHT22;11874;48.228;11.684;2023-07-29T09:50:19;20.80;99.90
23403;DHT22;11874;48.228;11.684;2023-07-29T09:52:52;20.90;99.90
23403;DHT22;11874;48.228;11.684;2023-07-29T09:55:24;20.90;99.90
23403;DHT22;11874;48.228;11.684;2023-07-29T09:57:57;20.90;99.90
23403;DHT22;11874;48.228;11.684;2023-07-29T10:00:28;20.90;99.90
23403;DHT22;11874;48.228;11.684;2023-07-29T10:02:57;21.00;99.90
23403;DHT22;11874;48.228;11.684;2023-07-29T10:05:26;21.00;99.90
23403;DHT22;11874;48.228;11.684;2023-07-29T10:07:55;21.10;99.90
23403;DHT22;11874;48.228;11.684;2023-07-29T10:10:26;21.20;99.90
23403;DHT22;11874;48.228;11.684;2023-07-29T10:12:55;21.20;99.90
23403;DHT22;11874;48.228;11.684;2023-07-29T10:15:24;21.30;99.90
23403;DHT22;11874;48.228;11.684;2023-07-29T10:17:53;21.20;99.90
23403;DHT22;11874;48.228;11.684;2023-07-29T10:20:22;21.30;99.90
23403;DHT22;11874;48.228;11.684;2023-07-29T10:22:52;21.30;99.90
23403;DHT22;11874;48.228;11.684;2023-07-29T10:25:26;21.30;99.90
23403;DHT22;11874;48.228;11.684;2023-07-29T10:27:59;21.30;99.90
23403;DHT22;11874;48.228;11.684;2023-07-29T10:30:29;21.40;99.90
23403;DHT22;11874;48.228;11.684;2023-07-29T10:32:59;21.40;99.90
23403;DHT22;11874;48.228;11.684;2023-07-29T10:35:29;21.40;99.90
23403;DHT22;11874;48.228;11.684;2023-07-29T10:37:59;21.50;99.90
23403;DHT22;11874;48.228;11.684;2023-07-29T10:40:43;21.60;99.90
23403;DHT22;11874;48.228;11.684;2023-07-29T10:43:18;21.60;99.90
23403;DHT22;11874;48.228;11.684;2023-07-29T10:45:48;21.80;99.90
23403;DHT22;11874;48.228;11.684;2023-07-29T10:48:40;21.80;99.90
23403;DHT22;11874;48.228;11.684;2023-07-29T10:51:25;21.90;99.90
23403;DHT22;11874;48.228;11.684;2023-07-29T10:53:57;22.00;99.90
23403;DHT22;11874;48.228;11.684;2023-07-29T10:56:32;22.10;99.90
23403;DHT22;11874;48.228;11.684;2023-07-29T10:59:30;22.10;99.90
23403;DHT22;11874;48.228;11.684;2023-07-29T11:02:00;22.10;99.90
23403;DHT22;11874;48.228;11.684;2023-07-29T11:04:45;22.20;99.90
23403;DHT22;11874;48.228;11.684;2023-07-29T11:07:26;22.20;99.90
23403;DHT22;11874;48.228;11.684;2023-07-29T11:09:59;22.20;99.90
23403;DHT22;11874;48.228;11.684;2023-07-29T11:15:22;22.00;99.90
23403;DHT22;11874;48.228;11.684;2023-07-29T11:17:55;21.90;99.90
23403;DHT22;11874;48.228;11.684;2023-07-29T11:20:29;21.70;99.90
23403;DHT22;11874;48.228;11.684;2023-07-29T11:22:59;21.60;99.90
23403;DHT22;11874;48.228;11.684;2023-07-29T11:25:30;21.50;99.90
23403;DHT22;11874;48.228;11.684;2023-07-29T11:28:01;21.40;99.90
23403;DHT22;11874;48.228;11.684;2023-07-29T11:30:33;21.40;99.90
23403;DHT22;11874;48.228;11.684;2023-07-29T11:33:03;21.30;99.90
23403;DHT22;11874;48.228;11.684;2023-07-29T11:35:33;21.40;99.90
23403;DHT22;11874;48.228;11.684;2023-07-29T11:38:04;21.40;99.90
23403;DHT22;11874;48.228;11.684;2023-07-29T11:40:32;21.40;99.90
23403;DHT22;11874;48.228;11.684;2023-07-29T11:43:01;21.30;99.90
23403;DHT22;11874;48.228;11.684;2023-07-29T11:45:29;21.30;99.90
23403;DHT22;11874;48.228;11.684;2023-07-29T11:48:16;21.30;99.90
23403;DHT22;11874;48.228;11.684;2023-07-29T11:50:45;21.30;99.90
23403;DHT22;11874;48.228;11.684;2023-07-29T11:53:14;21.30;99.90
23403;DHT22;11874;48.228;11.684;2023-07-29T11:55:43;21.40;99.90
23403;DHT22;11874;48.228;11.684;2023-07-29T11:58:15;21.50;99.90
23403;DHT22;11874;48.228;11.684;2023-07-29T12:00:44;21.60;99.90
23403;DHT22;11874;48.228;11.684;2023-07-29T12:03:13;21.60;99.90
23403;DHT22;11874;48.228;11.684;2023-07-29T12:05:45;21.60;99.90
23403;DHT22;11874;48.228;11.684;2023-07-29T12:08:14;21.70;99.90
23403;DHT22;11874;48.228;11.684;2023-07-29T12:10:42;21.80;99.90
23403;DHT22;11874;48.228;11.684;2023-07-29T12:13:10;21.80;99.90
23403;DHT22;11874;48.228;11.684;2023-07-29T12:15:41;21.90;99.90
23403;DHT22;11874;48.228;11.684;2023-07-29T12:18:09;21.90;99.90
23403;DHT22;11874;48.228;11.684;2023-07-29T12:20:37;22.00;99.90
23403;DHT22;11874;48.228;11.684;2023-07-29T12:23:05;22.00;99.90
23403;DHT22;11874;48.228;11.684;2023-07-29T12:25:35;22.10;99.90
23403;DHT22;11874;48.228;11.684;2023-07-29T12:28:03;22.20;99.90
23403;DHT22;11874;48.228;11.684;2023-07-29T12:30:33;22.30;99.90
23403;DHT22;11874;48.228;11.684;2023-07-29T12:33:03;22.40;99.90
23403;DHT22;11874;48.228;11.684;2023-07-29T12:35:36;22.60;99.90
23403;DHT22;11874;48.228;11.684;2023-07-29T12:38:04;22.70;99.90
23403;DHT22;11874;48.228;11.684;2023-07-29T12:40:37;22.60;99.90
23403;DHT22;11874;48.228;11.684;2023-07-29T12:43:05;22.50;99.90
23403;DHT22;11874;48.228;11.684;2023-07-29T12:45:36;22.40;99.90
23403;DHT22;11874;48.228;11.684;2023-07-29T12:48:08;22.30;99.90
23403;DHT22;11874;48.228;11.684;2023-07-29T12:50:37;22.20;99.90
23403;DHT22;11874;48.228;11.684;2023-07-29T12:53:09;22.20;99.90
23403;DHT22;11874;48.228;11.684;2023-07-29T12:55:38;22.10;99.90
23403;DHT22;11874;48.228;11.684;2023-07-29T12:58:10;22.00;99.90
23403;DHT22;11874;48.228;11.684;2023-07-29T13:00:38;21.90;99.90
23403;DHT22;11874;48.228;11.684;2023-07-29T13:03:07;21.80;99.90
23403;DHT22;11874;48.228;11.684;2023-07-29T13:05:35;21.80;99.90
23403;DHT22;11874;48.228;11.684;2023-07-29T13:08:03;21.70;99.90
23403;DHT22;11874;48.228;11.684;2023-07-29T13:10:31;21.70;99.90
23403;DHT22;11874;48.228;11.684;2023-07-29T13:12:59;21.70;99.90
23403;DHT22;11874;48.228;11.684;2023-07-29T13:15:27;21.60;99.90
23403;DHT22;11874;48.228;11.684;2023-07-29T13:17:55;21.60;99.90
23403;DHT22;11874;48.228;11.684;2023-07-29T13:20:25;21.60;99.90
23403;DHT22;11874;48.228;11.684;2023-07-29T13:22:52;21.60;99.90
23403;DHT22;11874;48.228;11.684;2023-07-29T13:25:21;21.50;99.90
23403;DHT22;11874;48.228;11.684;2023-07-29T13:27:49;21.50;99.90
23403;DHT22;11874;48.228;11.684;2023-07-29T13:30:17;21.50;99.90
23403;DHT22;11874;48.228;11.684;2023-07-29T13:32:45;21.50;99.90
23403;DHT22;11874;48.228;11.684;2023-07-29T13:35:13;21.50;99.90
23403;DHT22;11874;48.228;11.684;2023-07-29T13:37:42;21.50;99.90
23403;DHT22;11874;48.228;11.684;2023-07-29T13:40:10;21.60;99.90
23403;DHT22;11874;48.228;11.684;2023-07-29T13:42:38;21.50;99.90
23403;DHT22;11874;48.228;11.684;2023-07-29T13:45:07;21.60;99.90
23403;DHT22;11874;48.228;11.684;2023-07-29T13:47:36;21.50;99.90
23403;DHT22;11874;48.228;11.684;2023-07-29T13:50:05;21.50;99.90
23403;DHT22;11874;48.228;11.684;2023-07-29T13:52:35;21.50;99.90
23403;DHT22;11874;48.228;11.684;2023-07-29T13:55:06;21.40;99.90
23403;DHT22;11874;48.228;11.684;2023-07-29T13:57:34;21.40;99.90
23403;DHT22;11874;48.228;11.684;2023-07-29T14:00:03;21.50;99.90
23403;DHT22;11874;48.228;11.684;2023-07-29T14:02:33;21.50;99.90
23403;DHT22;11874;48.228;11.684;2023-07-29T14:05:01;21.50;99.90
23403;DHT22;11874;48.228;11.684;2023-07-29T14:07:29;21.50;99.90
23403;DHT22;11874;48.228;11.684;2023-07-29T14:09:57;21.50;99.90
23403;DHT22;11874;48.228;11.684;2023-07-29T14:12:29;21.50;99.90
23403;DHT22;11874;48.228;11.684;2023-07-29T14:14:57;21.50;99.90
23403;DHT22;11874;48.228;11.684;2023-07-29T14:17:25;21.50;99.90
23403;DHT22;11874;48.228;11.684;2023-07-29T14:19:53;21.40;99.90
23403;DHT22;11874;48.228;11.684;2023-07-29T14:22:21;21.50;99.90
23403;DHT22;11874;48.228;11.684;2023-07-29T14:24:49;21.50;99.90
23403;DHT22;11874;48.228;11.684;2023-07-29T14:27:17;21.50;99.90
23403;DHT22;11874;48.228;11.684;2023-07-29T14:29:47;21.40;99.90
23403;DHT22;11874;48.228;11.684;2023-07-29T14:32:15;21.50;99.90
23403;DHT22;11874;48.228;11.684;2023-07-29T14:34:43;21.40;99.90
23403;DHT22;11874;48.228;11.684;2023-07-29T14:37:12;21.40;99.90
23403;DHT22;11874;48.228;11.684;2023-07-29T14:39:40;21.30;99.90
23403;DHT22;11874;48.228;11.684;2023-07-29T14:42:08;21.30;99.90
23403;DHT22;11874;48.228;11.684;2023-07-29T14:44:36;21.30;99.90
23403;DHT22;11874;48.228;11.684;2023-07-29T14:47:07;21.30;99.90
23403;DHT22;11874;48.228;11.684;2023-07-29T14:49:35;21.20;99.90
23403;DHT22;11874;48.228;11.684;2023-07-29T14:52:05;21.20;99.90
23403;DHT22;11874;48.228;11.684;2023-07-29T14:54:33;21.20;99.90
23403;DHT22;11874;48.228;11.684;2023-07-29T14:57:04;21.10;99.90
23403;DHT22;11874;48.228;11.684;2023-07-29T14:59:32;21.10;99.90
23403;DHT22;11874;48.228;11.684;2023-07-29T15:02:00;21.00;99.90
